sensor_id;sensor_type;location;lat;lon;timestamp;P1;durP1;ratioP1;P2;durP2;ratioP2
12407;SDS011;6268;48.188;17.134;2022-12-26T00:01:50;11.32;;;9.10;;
12407;SDS011;6268;48.188;17.134;2022-12-26T00:04:20;12.23;;;10.02;;
12407;SDS011;6268;48.188;17.134;2022-12-26T00:07:10;13.27;;;10.18;;
12407;SDS011;6268;48.188;17.134;2022-12-26T00:09:39;11.98;;;10.73;;
12407;SDS011;6268;48.188;17.134;2022-12-26T00:12:07;15.15;;;11.80;;
12407;SDS011;6268;48.188;17.134;2022-12-26T00:14:38;13.20;;;11.13;;
12407;SDS011;6268;48.188;17.134;2022-12-26T00:17:06;12.57;;;11.35;;
12407;SDS011;6268;48.188;17.134;2022-12-26T00:19:35;11.77;;;9.52;;
12407;SDS011;6268;48.188;17.134;2022-12-26T00:22:04;9.90;;;8.60;;
12407;SDS011;6268;48.188;17.134;2022-12-26T00:24:34;10.82;;;8.77;;
12407;SDS011;6268;48.188;17.134;2022-12-26T00:27:03;9.68;;;8.02;;
12407;SDS011;6268;48.188;17.134;2022-12-26T00:29:31;10.23;;;8.73;;
12407;SDS011;6268;48.188;17.134;2022-12-26T00:32:02;10.13;;;8.90;;
12407;SDS011;6268;48.188;17.134;2022-12-26T00:34:31;11.07;;;8.70;;
12407;SDS011;6268;48.188;17.134;2022-12-26T00:37:00;9.73;;;8.48;;
12407;SDS011;6268;48.188;17.134;2022-12-26T00:39:28;11.55;;;9.15;;
12407;SDS011;6268;48.188;17.134;2022-12-26T00:41:57;10.55;;;9.38;;
12407;SDS011;6268;48.188;17.134;2022-12-26T00:44:26;9.55;;;8.63;;
12407;SDS011;6268;48.188;17.134;2022-12-26T00:46:55;13.55;;;9.60;;
12407;SDS011;6268;48.188;17.134;2022-12-26T00:49:25;11.75;;;9.15;;
12407;SDS011;6268;48.188;17.134;2022-12-26T00:52:14;10.65;;;8.55;;
12407;SDS011;6268;48.188;17.134;2022-12-26T00:54:43;10.65;;;8.40;;
12407;SDS011;6268;48.188;17.134;2022-12-26T00:57:12;13.60;;;9.88;;
12407;SDS011;6268;48.188;17.134;2022-12-26T00:59:41;10.35;;;9.07;;
12407;SDS011;6268;48.188;17.134;2022-12-26T01:02:09;9.75;;;8.73;;
12407;SDS011;6268;48.188;17.134;2022-12-26T01:04:54;11.18;;;8.38;;
12407;SDS011;6268;48.188;17.134;2022-12-26T01:07:22;11.05;;;8.45;;
12407;SDS011;6268;48.188;17.134;2022-12-26T01:09:51;9.70;;;8.63;;
12407;SDS011;6268;48.188;17.134;2022-12-26T01:12:20;11.27;;;8.88;;
12407;SDS011;6268;48.188;17.134;2022-12-26T01:14:49;8.65;;;7.82;;
12407;SDS011;6268;48.188;17.134;2022-12-26T01:17:18;12.25;;;9.13;;
12407;SDS011;6268;48.188;17.134;2022-12-26T01:19:47;10.10;;;9.10;;
12407;SDS011;6268;48.188;17.134;2022-12-26T01:22:17;12.00;;;8.45;;
12407;SDS011;6268;48.188;17.134;2022-12-26T01:24:46;11.02;;;9.05;;
12407;SDS011;6268;48.188;17.134;2022-12-26T01:27:15;13.43;;;9.90;;
12407;SDS011;6268;48.188;17.134;2022-12-26T01:29:44;11.48;;;9.07;;
12407;SDS011;6268;48.188;17.134;2022-12-26T01:32:13;12.05;;;9.27;;
12407;SDS011;6268;48.188;17.134;2022-12-26T01:34:42;10.75;;;9.27;;
12407;SDS011;6268;48.188;17.134;2022-12-26T01:37:11;9.90;;;8.90;;
12407;SDS011;6268;48.188;17.134;2022-12-26T01:39:42;12.18;;;9.68;;
12407;SDS011;6268;48.188;17.134;2022-12-26T01:42:12;9.80;;;8.65;;
12407;SDS011;6268;48.188;17.134;2022-12-26T01:44:59;11.07;;;10.00;;
12407;SDS011;6268;48.188;17.134;2022-12-26T01:47:38;10.50;;;9.32;;
12407;SDS011;6268;48.188;17.134;2022-12-26T01:50:18;11.70;;;9.77;;
12407;SDS011;6268;48.188;17.134;2022-12-26T01:53:01;12.13;;;9.60;;
12407;SDS011;6268;48.188;17.134;2022-12-26T01:55:38;11.18;;;9.15;;
12407;SDS011;6268;48.188;17.134;2022-12-26T01:58:11;13.63;;;10.80;;
12407;SDS011;6268;48.188;17.134;2022-12-26T02:00:47;13.68;;;9.40;;
12407;SDS011;6268;48.188;17.134;2022-12-26T02:03:16;10.60;;;9.48;;
12407;SDS011;6268;48.188;17.134;2022-12-26T02:06:17;10.50;;;9.40;;
12407;SDS011;6268;48.188;17.134;2022-12-26T02:08:47;11.68;;;10.52;;
12407;SDS011;6268;48.188;17.134;2022-12-26T02:11:18;13.65;;;10.70;;
12407;SDS011;6268;48.188;17.134;2022-12-26T02:13:52;13.43;;;9.82;;
12407;SDS011;6268;48.188;17.134;2022-12-26T02:16:21;11.30;;;10.10;;
12407;SDS011;6268;48.188;17.134;2022-12-26T02:18:51;13.88;;;10.35;;
12407;SDS011;6268;48.188;17.134;2022-12-26T02:21:35;12.45;;;11.02;;
12407;SDS011;6268;48.188;17.134;2022-12-26T02:24:43;12.95;;;10.45;;
12407;SDS011;6268;48.188;17.134;2022-12-26T02:27:55;12.05;;;10.27;;
12407;SDS011;6268;48.188;17.134;2022-12-26T02:31:08;14.77;;;11.50;;
12407;SDS011;6268;48.188;17.134;2022-12-26T02:33:45;12.30;;;11.00;;
12407;SDS011;6268;48.188;17.134;2022-12-26T02:36:45;13.57;;;10.07;;
12407;SDS011;6268;48.188;17.134;2022-12-26T02:39:45;12.02;;;9.70;;
12407;SDS011;6268;48.188;17.134;2022-12-26T02:42:33;12.35;;;9.00;;
12407;SDS011;6268;48.188;17.134;2022-12-26T02:45:15;12.25;;;10.02;;
12407;SDS011;6268;48.188;17.134;2022-12-26T02:48:18;12.93;;;9.52;;
12407;SDS011;6268;48.188;17.134;2022-12-26T02:51:02;12.95;;;10.57;;
12407;SDS011;6268;48.188;17.134;2022-12-26T02:54:03;13.00;;;10.63;;
12407;SDS011;6268;48.188;17.134;2022-12-26T02:57:03;10.48;;;9.35;;
12407;SDS011;6268;48.188;17.134;2022-12-26T02:59:53;15.18;;;10.65;;
12407;SDS011;6268;48.188;17.134;2022-12-26T03:02:46;12.93;;;10.30;;
12407;SDS011;6268;48.188;17.134;2022-12-26T03:05:41;12.52;;;11.20;;
12407;SDS011;6268;48.188;17.134;2022-12-26T03:08:33;14.48;;;11.02;;
12407;SDS011;6268;48.188;17.134;2022-12-26T03:11:28;13.85;;;12.23;;
12407;SDS011;6268;48.188;17.134;2022-12-26T03:14:24;15.35;;;12.63;;
12407;SDS011;6268;48.188;17.134;2022-12-26T03:16:57;15.93;;;12.68;;
12407;SDS011;6268;48.188;17.134;2022-12-26T03:19:47;14.85;;;13.25;;
12407;SDS011;6268;48.188;17.134;2022-12-26T03:22:31;16.63;;;13.63;;
12407;SDS011;6268;48.188;17.134;2022-12-26T03:25:07;15.40;;;13.75;;
12407;SDS011;6268;48.188;17.134;2022-12-26T03:27:56;16.15;;;14.30;;
12407;SDS011;6268;48.188;17.134;2022-12-26T03:30:25;19.45;;;16.48;;
12407;SDS011;6268;48.188;17.134;2022-12-26T03:33:12;18.50;;;15.60;;
12407;SDS011;6268;48.188;17.134;2022-12-26T03:35:54;17.83;;;14.23;;
12407;SDS011;6268;48.188;17.134;2022-12-26T03:38:26;16.42;;;14.70;;
12407;SDS011;6268;48.188;17.134;2022-12-26T03:41:24;17.73;;;13.52;;
12407;SDS011;6268;48.188;17.134;2022-12-26T03:44:22;14.00;;;12.45;;
12407;SDS011;6268;48.188;17.134;2022-12-26T03:47:23;16.15;;;14.32;;
12407;SDS011;6268;48.188;17.134;2022-12-26T03:50:20;14.32;;;12.82;;
12407;SDS011;6268;48.188;17.134;2022-12-26T03:53:21;17.52;;;13.50;;
12407;SDS011;6268;48.188;17.134;2022-12-26T03:56:17;17.30;;;13.00;;
12407;SDS011;6268;48.188;17.134;2022-12-26T03:59:18;16.80;;;13.23;;
12407;SDS011;6268;48.188;17.134;2022-12-26T04:02:12;14.45;;;12.25;;
12407;SDS011;6268;48.188;17.134;2022-12-26T04:05:01;14.00;;;12.60;;
12407;SDS011;6268;48.188;17.134;2022-12-26T04:07:53;14.80;;;13.20;;
12407;SDS011;6268;48.188;17.134;2022-12-26T04:10:48;15.63;;;13.00;;
12407;SDS011;6268;48.188;17.134;2022-12-26T04:13:41;16.30;;;13.50;;
12407;SDS011;6268;48.188;17.134;2022-12-26T04:16:54;16.02;;;13.85;;
12407;SDS011;6268;48.188;17.134;2022-12-26T04:20:03;17.75;;;13.70;;
12407;SDS011;6268;48.188;17.134;2022-12-26T04:22:42;16.83;;;15.00;;
12407;SDS011;6268;48.188;17.134;2022-12-26T04:25:34;16.65;;;14.52;;
12407;SDS011;6268;48.188;17.134;2022-12-26T04:28:32;19.45;;;15.85;;
12407;SDS011;6268;48.188;17.134;2022-12-26T04:31:20;21.08;;;16.42;;
12407;SDS011;6268;48.188;17.134;2022-12-26T04:34:14;16.75;;;13.73;;
12407;SDS011;6268;48.188;17.134;2022-12-26T04:37:09;16.25;;;13.35;;
12407;SDS011;6268;48.188;17.134;2022-12-26T04:40:06;18.27;;;14.23;;
12407;SDS011;6268;48.188;17.134;2022-12-26T04:42:59;15.15;;;13.52;;
12407;SDS011;6268;48.188;17.134;2022-12-26T04:46:09;18.80;;;15.18;;
12407;SDS011;6268;48.188;17.134;2022-12-26T04:48:40;18.40;;;15.98;;
12407;SDS011;6268;48.188;17.134;2022-12-26T04:51:30;16.02;;;14.25;;
12407;SDS011;6268;48.188;17.134;2022-12-26T04:53:59;17.02;;;13.30;;
12407;SDS011;6268;48.188;17.134;2022-12-26T04:56:27;14.10;;;12.50;;
12407;SDS011;6268;48.188;17.134;2022-12-26T04:58:56;14.45;;;13.05;;
12407;SDS011;6268;48.188;17.134;2022-12-26T05:01:27;15.40;;;12.32;;
12407;SDS011;6268;48.188;17.134;2022-12-26T05:04:15;13.48;;;12.00;;
12407;SDS011;6268;48.188;17.134;2022-12-26T05:07:03;13.35;;;11.52;;
12407;SDS011;6268;48.188;17.134;2022-12-26T05:09:59;13.90;;;12.25;;
12407;SDS011;6268;48.188;17.134;2022-12-26T05:12:28;13.82;;;12.05;;
12407;SDS011;6268;48.188;17.134;2022-12-26T05:14:57;13.75;;;12.23;;
12407;SDS011;6268;48.188;17.134;2022-12-26T05:17:27;17.13;;;12.68;;
12407;SDS011;6268;48.188;17.134;2022-12-26T05:20:14;13.52;;;11.27;;
12407;SDS011;6268;48.188;17.134;2022-12-26T05:23:14;15.88;;;11.93;;
12407;SDS011;6268;48.188;17.134;2022-12-26T05:26:03;13.60;;;12.18;;
12407;SDS011;6268;48.188;17.134;2022-12-26T05:28:53;12.27;;;11.07;;
12407;SDS011;6268;48.188;17.134;2022-12-26T05:31:26;14.85;;;12.35;;
12407;SDS011;6268;48.188;17.134;2022-12-26T05:34:03;17.05;;;12.65;;
12407;SDS011;6268;48.188;17.134;2022-12-26T05:36:32;13.52;;;11.85;;
12407;SDS011;6268;48.188;17.134;2022-12-26T05:39:06;13.00;;;11.70;;
12407;SDS011;6268;48.188;17.134;2022-12-26T05:41:36;12.70;;;11.40;;
12407;SDS011;6268;48.188;17.134;2022-12-26T05:44:06;13.70;;;12.30;;
12407;SDS011;6268;48.188;17.134;2022-12-26T05:46:35;13.88;;;12.27;;
12407;SDS011;6268;48.188;17.134;2022-12-26T05:49:07;14.95;;;12.32;;
12407;SDS011;6268;48.188;17.134;2022-12-26T05:51:36;14.75;;;11.82;;
12407;SDS011;6268;48.188;17.134;2022-12-26T05:54:05;13.48;;;12.07;;
12407;SDS011;6268;48.188;17.134;2022-12-26T05:56:34;16.00;;;11.52;;
12407;SDS011;6268;48.188;17.134;2022-12-26T05:59:03;12.98;;;11.57;;
12407;SDS011;6268;48.188;17.134;2022-12-26T06:01:32;14.95;;;12.50;;
12407;SDS011;6268;48.188;17.134;2022-12-26T06:04:01;14.00;;;12.48;;
12407;SDS011;6268;48.188;17.134;2022-12-26T06:06:31;12.93;;;11.63;;
12407;SDS011;6268;48.188;17.134;2022-12-26T06:09:00;15.80;;;11.88;;
12407;SDS011;6268;48.188;17.134;2022-12-26T06:11:29;13.65;;;12.32;;
12407;SDS011;6268;48.188;17.134;2022-12-26T06:13:58;14.75;;;13.18;;
12407;SDS011;6268;48.188;17.134;2022-12-26T06:16:27;13.85;;;12.45;;
12407;SDS011;6268;48.188;17.134;2022-12-26T06:18:56;14.52;;;12.25;;
12407;SDS011;6268;48.188;17.134;2022-12-26T06:21:25;13.75;;;11.55;;
12407;SDS011;6268;48.188;17.134;2022-12-26T06:23:56;15.02;;;11.65;;
12407;SDS011;6268;48.188;17.134;2022-12-26T06:26:26;12.55;;;11.15;;
12407;SDS011;6268;48.188;17.134;2022-12-26T06:28:55;12.40;;;11.10;;
12407;SDS011;6268;48.188;17.134;2022-12-26T06:31:23;13.43;;;11.40;;
12407;SDS011;6268;48.188;17.134;2022-12-26T06:33:53;12.80;;;11.05;;
12407;SDS011;6268;48.188;17.134;2022-12-26T06:36:27;13.18;;;11.70;;
12407;SDS011;6268;48.188;17.134;2022-12-26T06:38:58;14.18;;;11.55;;
12407;SDS011;6268;48.188;17.134;2022-12-26T06:41:27;12.73;;;11.35;;
12407;SDS011;6268;48.188;17.134;2022-12-26T06:43:56;13.57;;;11.80;;
12407;SDS011;6268;48.188;17.134;2022-12-26T06:46:25;16.48;;;11.43;;
12407;SDS011;6268;48.188;17.134;2022-12-26T06:48:55;14.10;;;12.45;;
12407;SDS011;6268;48.188;17.134;2022-12-26T06:51:24;14.98;;;12.13;;
12407;SDS011;6268;48.188;17.134;2022-12-26T06:53:55;14.93;;;13.00;;
12407;SDS011;6268;48.188;17.134;2022-12-26T06:56:28;15.55;;;12.05;;
12407;SDS011;6268;48.188;17.134;2022-12-26T06:58:59;16.02;;;12.80;;
12407;SDS011;6268;48.188;17.134;2022-12-26T07:01:32;14.60;;;12.35;;
12407;SDS011;6268;48.188;17.134;2022-12-26T07:04:02;16.48;;;12.13;;
12407;SDS011;6268;48.188;17.134;2022-12-26T07:06:32;13.05;;;11.68;;
12407;SDS011;6268;48.188;17.134;2022-12-26T07:09:05;13.57;;;11.93;;
12407;SDS011;6268;48.188;17.134;2022-12-26T07:11:39;13.07;;;11.77;;
12407;SDS011;6268;48.188;17.134;2022-12-26T07:14:12;12.90;;;11.55;;
12407;SDS011;6268;48.188;17.134;2022-12-26T07:16:42;16.17;;;11.82;;
12407;SDS011;6268;48.188;17.134;2022-12-26T07:19:12;15.02;;;11.45;;
12407;SDS011;6268;48.188;17.134;2022-12-26T07:21:42;14.65;;;13.25;;
12407;SDS011;6268;48.188;17.134;2022-12-26T07:24:14;13.73;;;12.30;;
12407;SDS011;6268;48.188;17.134;2022-12-26T07:26:44;13.57;;;12.00;;
12407;SDS011;6268;48.188;17.134;2022-12-26T07:29:14;13.55;;;11.95;;
12407;SDS011;6268;48.188;17.134;2022-12-26T07:31:44;14.18;;;11.88;;
12407;SDS011;6268;48.188;17.134;2022-12-26T07:34:12;13.13;;;11.82;;
12407;SDS011;6268;48.188;17.134;2022-12-26T07:36:42;13.30;;;11.90;;
12407;SDS011;6268;48.188;17.134;2022-12-26T07:39:11;14.10;;;12.07;;
12407;SDS011;6268;48.188;17.134;2022-12-26T07:41:42;16.83;;;12.40;;
12407;SDS011;6268;48.188;17.134;2022-12-26T07:44:27;13.52;;;12.10;;
12407;SDS011;6268;48.188;17.134;2022-12-26T07:46:58;16.65;;;13.10;;
12407;SDS011;6268;48.188;17.134;2022-12-26T07:49:28;15.48;;;13.63;;
12407;SDS011;6268;48.188;17.134;2022-12-26T07:51:56;23.98;;;17.20;;
12407;SDS011;6268;48.188;17.134;2022-12-26T07:54:30;16.92;;;12.70;;
12407;SDS011;6268;48.188;17.134;2022-12-26T07:56:59;15.00;;;13.50;;
12407;SDS011;6268;48.188;17.134;2022-12-26T07:59:47;15.18;;;13.57;;
12407;SDS011;6268;48.188;17.134;2022-12-26T08:02:19;16.65;;;14.20;;
12407;SDS011;6268;48.188;17.134;2022-12-26T08:04:48;16.83;;;14.25;;
12407;SDS011;6268;48.188;17.134;2022-12-26T08:07:17;15.60;;;13.73;;
12407;SDS011;6268;48.188;17.134;2022-12-26T08:09:49;14.80;;;13.25;;
12407;SDS011;6268;48.188;17.134;2022-12-26T08:12:18;15.30;;;13.00;;
12407;SDS011;6268;48.188;17.134;2022-12-26T08:14:50;15.10;;;13.30;;
12407;SDS011;6268;48.188;17.134;2022-12-26T08:17:18;17.20;;;15.02;;
12407;SDS011;6268;48.188;17.134;2022-12-26T08:19:47;21.33;;;15.38;;
12407;SDS011;6268;48.188;17.134;2022-12-26T08:22:16;15.48;;;13.88;;
12407;SDS011;6268;48.188;17.134;2022-12-26T08:24:45;16.38;;;14.23;;
12407;SDS011;6268;48.188;17.134;2022-12-26T08:27:15;16.15;;;14.55;;
12407;SDS011;6268;48.188;17.134;2022-12-26T08:29:44;15.80;;;14.02;;
12407;SDS011;6268;48.188;17.134;2022-12-26T08:32:14;16.73;;;14.95;;
12407;SDS011;6268;48.188;17.134;2022-12-26T08:34:43;16.10;;;14.43;;
12407;SDS011;6268;48.188;17.134;2022-12-26T08:37:12;20.55;;;17.02;;
12407;SDS011;6268;48.188;17.134;2022-12-26T08:39:41;21.13;;;17.77;;
12407;SDS011;6268;48.188;17.134;2022-12-26T08:42:10;21.10;;;18.83;;
12407;SDS011;6268;48.188;17.134;2022-12-26T08:44:40;21.10;;;18.65;;
12407;SDS011;6268;48.188;17.134;2022-12-26T08:47:09;22.65;;;19.02;;
12407;SDS011;6268;48.188;17.134;2022-12-26T08:49:38;20.35;;;17.98;;
12407;SDS011;6268;48.188;17.134;2022-12-26T08:52:07;21.83;;;19.13;;
12407;SDS011;6268;48.188;17.134;2022-12-26T08:54:36;21.08;;;18.85;;
12407;SDS011;6268;48.188;17.134;2022-12-26T08:57:05;22.95;;;18.83;;
12407;SDS011;6268;48.188;17.134;2022-12-26T08:59:35;25.75;;;19.85;;
12407;SDS011;6268;48.188;17.134;2022-12-26T09:02:05;24.70;;;20.52;;
12407;SDS011;6268;48.188;17.134;2022-12-26T09:04:36;21.40;;;19.05;;
12407;SDS011;6268;48.188;17.134;2022-12-26T09:07:06;23.00;;;19.33;;
12407;SDS011;6268;48.188;17.134;2022-12-26T09:09:34;21.77;;;18.80;;
12407;SDS011;6268;48.188;17.134;2022-12-26T09:12:04;23.02;;;19.60;;
12407;SDS011;6268;48.188;17.134;2022-12-26T09:14:33;23.98;;;19.50;;
12407;SDS011;6268;48.188;17.134;2022-12-26T09:17:02;24.55;;;19.83;;
12407;SDS011;6268;48.188;17.134;2022-12-26T09:19:35;23.88;;;20.60;;
12407;SDS011;6268;48.188;17.134;2022-12-26T09:22:04;26.98;;;21.05;;
12407;SDS011;6268;48.188;17.134;2022-12-26T09:24:58;26.63;;;21.42;;
12407;SDS011;6268;48.188;17.134;2022-12-26T09:27:27;25.70;;;21.45;;
12407;SDS011;6268;48.188;17.134;2022-12-26T09:29:56;25.20;;;20.83;;
12407;SDS011;6268;48.188;17.134;2022-12-26T09:32:26;25.92;;;21.67;;
12407;SDS011;6268;48.188;17.134;2022-12-26T09:35:00;26.83;;;22.40;;
12407;SDS011;6268;48.188;17.134;2022-12-26T09:37:29;27.15;;;22.65;;
12407;SDS011;6268;48.188;17.134;2022-12-26T09:39:58;26.67;;;22.63;;
12407;SDS011;6268;48.188;17.134;2022-12-26T09:42:28;25.35;;;21.42;;
12407;SDS011;6268;48.188;17.134;2022-12-26T09:45:08;28.35;;;23.83;;
12407;SDS011;6268;48.188;17.134;2022-12-26T09:47:45;30.17;;;23.15;;
12407;SDS011;6268;48.188;17.134;2022-12-26T09:50:25;28.55;;;22.65;;
12407;SDS011;6268;48.188;17.134;2022-12-26T09:53:04;25.35;;;22.60;;
12407;SDS011;6268;48.188;17.134;2022-12-26T09:55:39;29.42;;;22.88;;
12407;SDS011;6268;48.188;17.134;2022-12-26T09:58:18;27.40;;;22.00;;
12407;SDS011;6268;48.188;17.134;2022-12-26T10:00:55;30.73;;;24.45;;
12407;SDS011;6268;48.188;17.134;2022-12-26T10:03:36;29.13;;;23.88;;
12407;SDS011;6268;48.188;17.134;2022-12-26T10:06:10;29.65;;;24.63;;
12407;SDS011;6268;48.188;17.134;2022-12-26T10:11:56;28.13;;;23.80;;
12407;SDS011;6268;48.188;17.134;2022-12-26T10:14:47;30.00;;;24.13;;
12407;SDS011;6268;48.188;17.134;2022-12-26T10:17:27;30.65;;;25.23;;
12407;SDS011;6268;48.188;17.134;2022-12-26T10:20:13;27.88;;;22.95;;
12407;SDS011;6268;48.188;17.134;2022-12-26T10:23:05;27.67;;;23.83;;
12407;SDS011;6268;48.188;17.134;2022-12-26T10:25:52;30.20;;;23.23;;
12407;SDS011;6268;48.188;17.134;2022-12-26T10:28:29;29.92;;;24.65;;
12407;SDS011;6268;48.188;17.134;2022-12-26T10:31:05;32.78;;;24.85;;
12407;SDS011;6268;48.188;17.134;2022-12-26T10:33:44;31.83;;;25.65;;
12407;SDS011;6268;48.188;17.134;2022-12-26T10:36:25;29.58;;;25.08;;
12407;SDS011;6268;48.188;17.134;2022-12-26T10:39:00;29.23;;;24.20;;
12407;SDS011;6268;48.188;17.134;2022-12-26T10:41:41;32.70;;;24.58;;
12407;SDS011;6268;48.188;17.134;2022-12-26T10:44:16;29.00;;;25.00;;
12407;SDS011;6268;48.188;17.134;2022-12-26T10:47:00;30.27;;;24.50;;
12407;SDS011;6268;48.188;17.134;2022-12-26T10:49:48;31.08;;;25.27;;
12407;SDS011;6268;48.188;17.134;2022-12-26T10:52:20;32.03;;;26.08;;
12407;SDS011;6268;48.188;17.134;2022-12-26T10:54:56;33.50;;;25.52;;
12407;SDS011;6268;48.188;17.134;2022-12-26T10:57:47;30.27;;;24.58;;
12407;SDS011;6268;48.188;17.134;2022-12-26T11:00:19;30.15;;;24.02;;
12407;SDS011;6268;48.188;17.134;2022-12-26T11:03:03;29.80;;;23.98;;
12407;SDS011;6268;48.188;17.134;2022-12-26T11:05:35;30.80;;;25.02;;
12407;SDS011;6268;48.188;17.134;2022-12-26T11:08:34;29.38;;;24.20;;
12407;SDS011;6268;48.188;17.134;2022-12-26T11:11:11;27.58;;;24.35;;
12407;SDS011;6268;48.188;17.134;2022-12-26T11:13:48;31.33;;;25.83;;
12407;SDS011;6268;48.188;17.134;2022-12-26T11:16:28;30.48;;;25.17;;
12407;SDS011;6268;48.188;17.134;2022-12-26T11:19:01;29.50;;;23.58;;
12407;SDS011;6268;48.188;17.134;2022-12-26T11:21:30;29.02;;;24.05;;
12407;SDS011;6268;48.188;17.134;2022-12-26T11:24:14;29.60;;;24.27;;
12407;SDS011;6268;48.188;17.134;2022-12-26T11:26:46;95.47;;;66.10;;
12407;SDS011;6268;48.188;17.134;2022-12-26T11:29:15;35.92;;;28.25;;
12407;SDS011;6268;48.188;17.134;2022-12-26T11:31:49;31.65;;;24.77;;
12407;SDS011;6268;48.188;17.134;2022-12-26T11:34:26;31.05;;;24.48;;
12407;SDS011;6268;48.188;17.134;2022-12-26T11:37:01;30.42;;;22.90;;
12407;SDS011;6268;48.188;17.134;2022-12-26T11:39:34;27.95;;;23.00;;
12407;SDS011;6268;48.188;17.134;2022-12-26T11:42:07;29.23;;;24.08;;
12407;SDS011;6268;48.188;17.134;2022-12-26T11:44:39;30.08;;;23.25;;
12407;SDS011;6268;48.188;17.134;2022-12-26T11:47:11;25.85;;;22.92;;
12407;SDS011;6268;48.188;17.134;2022-12-26T11:49:45;32.47;;;25.00;;
12407;SDS011;6268;48.188;17.134;2022-12-26T11:52:32;31.65;;;24.35;;
12407;SDS011;6268;48.188;17.134;2022-12-26T11:57:58;29.88;;;24.35;;
12407;SDS011;6268;48.188;17.134;2022-12-26T12:00:43;28.05;;;24.50;;
12407;SDS011;6268;48.188;17.134;2022-12-26T12:03:35;29.58;;;25.70;;
12407;SDS011;6268;48.188;17.134;2022-12-26T12:06:18;32.28;;;26.85;;
12407;SDS011;6268;48.188;17.134;2022-12-26T12:09:20;31.98;;;26.50;;
12407;SDS011;6268;48.188;17.134;2022-12-26T12:12:04;31.20;;;25.30;;
12407;SDS011;6268;48.188;17.134;2022-12-26T12:14:51;29.85;;;24.20;;
12407;SDS011;6268;48.188;17.134;2022-12-26T12:17:32;29.42;;;26.02;;
12407;SDS011;6268;48.188;17.134;2022-12-26T12:20:18;31.80;;;26.95;;
12407;SDS011;6268;48.188;17.134;2022-12-26T12:23:02;47.00;;;34.78;;
12407;SDS011;6268;48.188;17.134;2022-12-26T12:25:54;41.78;;;34.33;;
12407;SDS011;6268;48.188;17.134;2022-12-26T12:28:41;34.17;;;27.42;;
12407;SDS011;6268;48.188;17.134;2022-12-26T12:31:41;33.38;;;28.15;;
12407;SDS011;6268;48.188;17.134;2022-12-26T12:34:39;29.25;;;25.45;;
12407;SDS011;6268;48.188;17.134;2022-12-26T12:37:29;29.15;;;24.30;;
12407;SDS011;6268;48.188;17.134;2022-12-26T12:40:13;29.20;;;25.17;;
12407;SDS011;6268;48.188;17.134;2022-12-26T12:43:00;28.10;;;24.65;;
12407;SDS011;6268;48.188;17.134;2022-12-26T12:45:43;29.42;;;26.17;;
12407;SDS011;6268;48.188;17.134;2022-12-26T12:48:33;30.92;;;25.85;;
12407;SDS011;6268;48.188;17.134;2022-12-26T12:51:24;28.35;;;25.35;;
12407;SDS011;6268;48.188;17.134;2022-12-26T12:54:19;31.42;;;26.55;;
12407;SDS011;6268;48.188;17.134;2022-12-26T12:57:19;30.35;;;26.92;;
12407;SDS011;6268;48.188;17.134;2022-12-26T13:00:00;30.70;;;26.55;;
12407;SDS011;6268;48.188;17.134;2022-12-26T13:02:46;53.92;;;47.58;;
12407;SDS011;6268;48.188;17.134;2022-12-26T13:05:26;34.20;;;29.85;;
12407;SDS011;6268;48.188;17.134;2022-12-26T13:08:07;34.08;;;28.58;;
12407;SDS011;6268;48.188;17.134;2022-12-26T13:10:45;31.27;;;27.88;;
12407;SDS011;6268;48.188;17.134;2022-12-26T13:13:21;31.25;;;27.48;;
12407;SDS011;6268;48.188;17.134;2022-12-26T13:15:56;30.63;;;26.02;;
12407;SDS011;6268;48.188;17.134;2022-12-26T13:18:37;34.00;;;27.23;;
12407;SDS011;6268;48.188;17.134;2022-12-26T13:21:15;30.52;;;26.63;;
12407;SDS011;6268;48.188;17.134;2022-12-26T13:23:48;32.25;;;27.63;;
12407;SDS011;6268;48.188;17.134;2022-12-26T13:26:41;30.48;;;27.20;;
12407;SDS011;6268;48.188;17.134;2022-12-26T13:29:15;31.98;;;26.77;;
12407;SDS011;6268;48.188;17.134;2022-12-26T13:31:54;31.80;;;27.88;;
12407;SDS011;6268;48.188;17.134;2022-12-26T13:34:27;30.05;;;26.45;;
12407;SDS011;6268;48.188;17.134;2022-12-26T13:36:57;30.60;;;26.70;;
12407;SDS011;6268;48.188;17.134;2022-12-26T13:39:35;30.17;;;26.42;;
12407;SDS011;6268;48.188;17.134;2022-12-26T13:51:55;30.80;;;27.35;;
12407;SDS011;6268;48.188;17.134;2022-12-26T13:54:27;29.00;;;25.90;;
12407;SDS011;6268;48.188;17.134;2022-12-26T14:00:06;29.38;;;26.17;;
12407;SDS011;6268;48.188;17.134;2022-12-26T14:09:29;28.73;;;25.83;;
12407;SDS011;6268;48.188;17.134;2022-12-26T14:12:30;29.55;;;25.10;;
12407;SDS011;6268;48.188;17.134;2022-12-26T14:15:23;29.00;;;25.90;;
12407;SDS011;6268;48.188;17.134;2022-12-26T14:18:08;30.55;;;27.35;;
12407;SDS011;6268;48.188;17.134;2022-12-26T14:20:56;32.40;;;27.27;;
12407;SDS011;6268;48.188;17.134;2022-12-26T14:23:50;30.23;;;27.02;;
12407;SDS011;6268;48.188;17.134;2022-12-26T14:26:33;32.85;;;28.00;;
12407;SDS011;6268;48.188;17.134;2022-12-26T14:29:18;31.73;;;28.33;;
12407;SDS011;6268;48.188;17.134;2022-12-26T14:32:08;30.40;;;26.98;;
12407;SDS011;6268;48.188;17.134;2022-12-26T14:34:54;29.80;;;26.02;;
12407;SDS011;6268;48.188;17.134;2022-12-26T14:37:36;29.67;;;25.73;;
12407;SDS011;6268;48.188;17.134;2022-12-26T14:40:17;30.73;;;26.52;;
12407;SDS011;6268;48.188;17.134;2022-12-26T14:43:07;30.10;;;24.98;;
12407;SDS011;6268;48.188;17.134;2022-12-26T14:45:54;42.80;;;37.22;;
12407;SDS011;6268;48.188;17.134;2022-12-26T14:51:31;29.50;;;25.52;;
12407;SDS011;6268;48.188;17.134;2022-12-26T14:54:17;34.22;;;28.05;;
12407;SDS011;6268;48.188;17.134;2022-12-26T15:00:27;27.27;;;24.38;;
12407;SDS011;6268;48.188;17.134;2022-12-26T15:03:19;32.58;;;25.60;;
12407;SDS011;6268;48.188;17.134;2022-12-26T15:09:47;29.05;;;25.67;;
12407;SDS011;6268;48.188;17.134;2022-12-26T15:16:20;30.85;;;25.58;;
12407;SDS011;6268;48.188;17.134;2022-12-26T15:22:24;29.48;;;25.00;;
12407;SDS011;6268;48.188;17.134;2022-12-26T15:25:50;29.10;;;26.00;;
12407;SDS011;6268;48.188;17.134;2022-12-26T15:29:05;30.35;;;26.52;;
12407;SDS011;6268;48.188;17.134;2022-12-26T15:32:16;32.55;;;27.30;;
12407;SDS011;6268;48.188;17.134;2022-12-26T15:35:10;31.23;;;27.65;;
12407;SDS011;6268;48.188;17.134;2022-12-26T15:37:55;33.90;;;29.98;;
12407;SDS011;6268;48.188;17.134;2022-12-26T15:40:50;31.58;;;27.50;;
12407;SDS011;6268;48.188;17.134;2022-12-26T15:43:34;31.65;;;27.50;;
12407;SDS011;6268;48.188;17.134;2022-12-26T15:46:34;31.40;;;27.02;;
12407;SDS011;6268;48.188;17.134;2022-12-26T15:49:19;29.98;;;26.80;;
12407;SDS011;6268;48.188;17.134;2022-12-26T15:52:09;31.33;;;26.48;;
12407;SDS011;6268;48.188;17.134;2022-12-26T15:54:56;33.65;;;27.13;;
12407;SDS011;6268;48.188;17.134;2022-12-26T15:58:07;30.48;;;27.17;;
12407;SDS011;6268;48.188;17.134;2022-12-26T16:00:52;31.35;;;27.67;;
12407;SDS011;6268;48.188;17.134;2022-12-26T16:03:29;31.52;;;28.23;;
12407;SDS011;6268;48.188;17.134;2022-12-26T16:06:15;31.20;;;27.30;;
12407;SDS011;6268;48.188;17.134;2022-12-26T16:09:07;30.52;;;27.13;;
12407;SDS011;6268;48.188;17.134;2022-12-26T16:12:01;32.20;;;27.92;;
12407;SDS011;6268;48.188;17.134;2022-12-26T16:14:46;34.47;;;27.02;;
12407;SDS011;6268;48.188;17.134;2022-12-26T16:17:28;32.88;;;27.77;;